Portada
METAR-TAF:

METAR-TAF

Aeroports :

Sulaymaniyya, Iraq

latitud: 35-33-39N, longitud: 45-18-52E, altitud: 760 m

Observació

L'informe es va fer fa 37 minuts, a les 11:00 UTC
Vent 10 kt del Nord/Nord-Oest
Temperatura 35°C
Humitat 18%
Pressió 1014 hPa
Visibilitat 10 km o més
Escasses núvols a una alçada de 4500 ft
Núvols disperses a una alçada de 8000 ft

METAR: ORSU 291100Z 33010KT 9999 FEW045 SCT080 35/07 Q1014

Hora: 14:37 (11:37 UTC)

Pronòstic

L'informe es va fer fa 37 minuts, a les 11:00 UTC
Pronòstic vàlid del 29 a les 12 UTC al 30 a les 12 UTC
Vent 10 kt del Nord-Oest
Visibilitat 10 km o més
Escasses núvols a una alçada de 4500 ft
Núvols disperses a una alçada de 8000 ft
Evolucionant progressivament
l' 29 a les 17 UTC al 29 a les 19 UTC
Vent 6 kt del Nord/Nord-Oest
Visibilitat 10 km o més
sense núvols per sota de 1500 mi sense presència de cumulonimbus.

TAF: ORSU 291100Z 2912/3012 32010KT 9999 FEW045 SCT080 BECMG 2917/2919 34006KT CAVOK

Observacions i pronòstics meteorològics de més de 4000 aeroports (METAR i TAF).

Les estacions disponibles són els punts grocs i vermells al mapa.

Posi el ratolí al punt desitjat per veure el nom de l'estació.

Feu clic per veure les observacions i els pronòstics meteorològics.

Per canviar el mapa: feu clic els botons verds amb una creu de color negre per apropar; al botó verd amb un guió per allunyar la imatge; o en les fletxes verdes per a mapes adjacents.


METAR-TAF: